Time;durP1;ratioP1;P1;durP2;ratioP2;P2;SDS_P1;SDS_P2;PMS_P1;PMS_P2;Temp;Humidity;BMP_temperature;BMP_pressure;BME280_temperature;BME280_humidity;BME280_pressure;Samples;Min_cycle;Max_cycle;Signal;HPM_P1;HPM_P2
2022/07/04 00:02:18;;;;;;;;;;;14.30;99.90;;;;;;5092774;28;19925;-77
2022/07/04 00:04:43;;;;;;;;;;;14.30;99.90;;;;;;5092954;28;20374;-77
2022/07/04 00:07:09;;;;;;;;;;;14.40;99.90;;;;;;5059229;28;19931;-77
2022/07/04 00:09:34;;;;;;;;;;;14.40;99.90;;;;;;5075881;28;20068;-77
2022/07/04 00:12:00;;;;;;;;;;;14.40;99.90;;;;;;5093439;28;19935;-77
2022/07/04 00:14:25;;;;;;;;;;;14.30;99.90;;;;;;5093312;28;20274;-77
2022/07/04 00:16:51;;;;;;;;;;;14.30;99.90;;;;;;5092528;28;19989;-77
2022/07/04 00:19:16;;;;;;;;;;;14.30;99.90;;;;;;5092861;28;19924;-78
2022/07/04 00:21:42;;;;;;;;;;;14.20;99.90;;;;;;5092592;28;20014;-77
2022/07/04 00:24:08;;;;;;;;;;;14.20;99.90;;;;;;5092634;28;19924;-78
2022/07/04 00:26:33;;;;;;;;;;;14.20;99.90;;;;;;5092441;28;19924;-78
2022/07/04 00:28:59;;;;;;;;;;;14.20;99.90;;;;;;5092557;28;19924;-77
2022/07/04 00:31:24;;;;;;;;;;;14.10;99.90;;;;;;5075517;28;19924;-77
2022/07/04 00:33:50;;;;;;;;;;;14.00;99.90;;;;;;5092536;28;19928;-77
2022/07/04 00:36:15;;;;;;;;;;;14.00;99.90;;;;;;5092144;28;20018;-77
2022/07/04 00:38:41;;;;;;;;;;;13.90;99.90;;;;;;5075915;28;19928;-77
2022/07/04 00:41:07;;;;;;;;;;;13.90;99.90;;;;;;5096433;28;19990;-77
2022/07/04 00:43:32;;;;;;;;;;;13.80;99.90;;;;;;5095774;28;20381;-78
2022/07/04 00:45:58;;;;;;;;;;;13.80;99.90;;;;;;5078597;28;20249;-77
2022/07/04 00:48:23;;;;;;;;;;;13.70;99.90;;;;;;5095863;28;19974;-77
2022/07/04 00:50:49;;;;;;;;;;;13.60;99.90;;;;;;5078725;28;19946;-77
2022/07/04 00:53:15;;;;;;;;;;;13.60;99.90;;;;;;5095869;28;20018;-77
2022/07/04 00:55:40;;;;;;;;;;;13.50;99.90;;;;;;5099200;28;19928;-77
2022/07/04 00:58:06;;;;;;;;;;;13.50;99.90;;;;;;5099377;28;19923;-77
2022/07/04 01:00:32;;;;;;;;;;;13.50;99.90;;;;;;5099608;28;20002;-77
2022/07/04 01:02:57;;;;;;;;;;;13.40;99.90;;;;;;5099261;28;19931;-77
2022/07/04 01:05:23;;;;;;;;;;;13.40;99.90;;;;;;5082979;28;19938;-77
2022/07/04 01:07:49;;;;;;;;;;;13.40;99.90;;;;;;5100004;28;19931;-77
2022/07/04 01:10:15;;;;;;;;;;;13.40;99.90;;;;;;5099810;28;20245;-77
2022/07/04 01:12:40;;;;;;;;;;;13.30;99.90;;;;;;5099096;28;19932;-77
2022/07/04 01:15:06;;;;;;;;;;;13.30;99.90;;;;;;5082104;28;19975;-77
2022/07/04 01:17:32;;;;;;;;;;;13.30;99.90;;;;;;5065449;28;19923;-79
2022/07/04 01:19:58;;;;;;;;;;;13.30;99.90;;;;;;5099179;28;19930;-77
2022/07/04 01:22:23;;;;;;;;;;;13.20;99.90;;;;;;5099725;28;19975;-79
2022/07/04 01:24:49;;;;;;;;;;;13.30;99.90;;;;;;5081700;28;19924;-77
2022/07/04 01:27:15;;;;;;;;;;;13.20;99.90;;;;;;5098833;28;19935;-77
2022/07/04 01:29:41;;;;;;;;;;;13.20;99.90;;;;;;5098915;28;20036;-77
2022/07/04 01:32:07;;;;;;;;;;;13.10;99.90;;;;;;5099468;28;20023;-77
2022/07/04 01:34:33;;;;;;;;;;;13.10;99.90;;;;;;5065262;28;19924;-77
2022/07/04 01:36:59;;;;;;;;;;;13.20;99.90;;;;;;5132766;27;19931;-77
2022/07/04 01:39:24;;;;;;;;;;;13.10;99.90;;;;;;5098168;28;19924;-77
2022/07/04 01:41:50;;;;;;;;;;;13.10;99.90;;;;;;5098215;28;19949;-77
2022/07/04 01:44:15;;;;;;;;;;;13.10;99.90;;;;;;5098561;28;19924;-77
2022/07/04 01:46:41;;;;;;;;;;;13.00;99.90;;;;;;5081669;28;19923;-77
2022/07/04 01:49:06;;;;;;;;;;;13.00;99.90;;;;;;5081845;28;19931;-77
2022/07/04 01:51:32;;;;;;;;;;;13.00;99.90;;;;;;5116244;28;19924;-78
2022/07/04 01:53:57;;;;;;;;;;;13.00;99.90;;;;;;5098535;28;19924;-77
2022/07/04 01:56:23;;;;;;;;;;;13.00;99.90;;;;;;5081474;28;19924;-77
2022/07/04 01:58:48;;;;;;;;;;;13.00;99.90;;;;;;5082065;28;20365;-77
2022/07/04 02:01:29;;;;;;;;;;;13.00;99.90;;;;;;5081405;28;19923;-77
2022/07/04 02:03:56;;;;;;;;;;;13.00;99.90;;;;;;5098411;28;20065;-77
2022/07/04 02:06:21;;;;;;;;;;;12.90;99.90;;;;;;5097811;28;19977;-77
2022/07/04 02:13:00;;;;;;;;;;;13.00;99.90;;;;;;5132200;27;20021;-77
2022/07/04 02:14:17;;;;;;;;;;;12.90;99.90;;;;;;5083758;28;19971;-77
2022/07/04 02:16:42;;;;;;;;;;;12.90;99.90;;;;;;5132011;27;20370;-77
2022/07/04 02:19:08;;;;;;;;;;;12.90;99.90;;;;;;5098567;28;19976;-77
2022/07/04 02:21:33;;;;;;;;;;;12.80;99.90;;;;;;5080866;28;20305;-77
2022/07/04 02:23:59;;;;;;;;;;;12.80;99.90;;;;;;5097995;28;20072;-77
2022/07/04 02:26:24;;;;;;;;;;;12.80;99.90;;;;;;5115652;28;19968;-77
2022/07/04 02:28:51;;;;;;;;;;;12.80;99.90;;;;;;5097852;28;19927;-77
2022/07/04 02:31:16;;;;;;;;;;;12.80;99.90;;;;;;5097512;28;20359;-77
2022/07/04 02:33:42;;;;;;;;;;;12.80;99.90;;;;;;5097277;28;19984;-77
2022/07/04 02:36:07;;;;;;;;;;;12.80;99.90;;;;;;5080597;28;19924;-76
2022/07/04 02:38:33;;;;;;;;;;;12.80;99.90;;;;;;5064239;28;19990;-77
2022/07/04 02:40:58;;;;;;;;;;;12.80;99.90;;;;;;5063547;28;19924;-77
2022/07/04 02:43:24;;;;;;;;;;;12.80;99.90;;;;;;5097385;28;19924;-77
2022/07/04 02:45:50;;;;;;;;;;;12.80;99.90;;;;;;5097259;28;20363;-77
2022/07/04 02:48:15;;;;;;;;;;;12.80;99.90;;;;;;5097268;28;19924;-77
2022/07/04 02:50:41;;;;;;;;;;;12.80;99.90;;;;;;5080395;28;19924;-76
2022/07/04 02:53:06;;;;;;;;;;;12.80;99.90;;;;;;5097182;28;19924;-77
2022/07/04 02:55:32;;;;;;;;;;;12.70;99.90;;;;;;5115111;28;19983;-77
2022/07/04 02:57:57;;;;;;;;;;;12.70;99.90;;;;;;5096988;28;20014;-77
2022/07/04 03:00:23;;;;;;;;;;;12.70;99.90;;;;;;5097857;28;19923;-77
2022/07/04 03:02:49;;;;;;;;;;;12.80;99.90;;;;;;5131070;27;19924;-77
2022/07/04 03:05:14;;;;;;;;;;;12.80;99.90;;;;;;5097056;28;19924;-77
2022/07/04 03:07:40;;;;;;;;;;;12.80;99.90;;;;;;5096849;28;19934;-77
2022/07/04 03:10:06;;;;;;;;;;;12.80;99.90;;;;;;5096469;28;19977;-77
2022/07/04 03:12:31;;;;;;;;;;;12.80;99.90;;;;;;5096852;28;19924;-77
2022/07/04 03:14:58;;;;;;;;;;;12.90;99.90;;;;;;5096715;28;19931;-77
2022/07/04 03:17:25;;;;;;;;;;;12.90;99.90;;;;;;5095615;28;19924;-77
2022/07/04 03:19:50;;;;;;;;;;;12.90;99.90;;;;;;5079749;28;20049;-77
2022/07/04 03:22:16;;;;;;;;;;;12.90;99.90;;;;;;5063244;28;20014;-77
2022/07/04 03:24:42;;;;;;;;;;;12.80;99.90;;;;;;5114544;28;19953;-77
2022/07/04 03:27:07;;;;;;;;;;;12.90;99.90;;;;;;5096694;28;19932;-77
2022/07/04 03:29:33;;;;;;;;;;;12.80;99.90;;;;;;5096485;28;20010;-77
2022/07/04 03:31:59;;;;;;;;;;;12.90;99.90;;;;;;5096420;28;19923;-77
2022/07/04 03:34:24;;;;;;;;;;;12.80;99.90;;;;;;5096458;28;20342;-77
2022/07/04 03:36:50;;;;;;;;;;;12.90;99.90;;;;;;5096352;28;19928;-77
2022/07/04 03:39:16;;;;;;;;;;;12.80;99.90;;;;;;5079097;28;19924;-76
2022/07/04 03:41:41;;;;;;;;;;;12.80;99.90;;;;;;5114528;28;19924;-77
2022/07/04 03:44:07;;;;;;;;;;;12.90;99.90;;;;;;5097782;28;20011;-77
2022/07/04 03:46:32;;;;;;;;;;;12.90;99.90;;;;;;5079508;28;19936;-78
2022/07/04 03:48:59;;;;;;;;;;;12.90;99.90;;;;;;5096602;28;19924;-77
2022/07/04 03:51:25;;;;;;;;;;;12.90;99.90;;;;;;5079768;28;19981;-77
2022/07/04 03:53:50;;;;;;;;;;;12.90;99.90;;;;;;5079397;28;20047;-77
2022/07/04 03:56:16;;;;;;;;;;;12.90;99.90;;;;;;5078945;28;19978;-77
2022/07/04 03:58:48;;;;;;;;;;;12.90;99.90;;;;;;5079044;28;19924;-86
2022/07/04 04:01:15;;;;;;;;;;;13.00;99.90;;;;;;5081148;28;20340;-77
2022/07/04 04:06:25;;;;;;;;;;;13.00;99.90;;;;;;5130567;28;19931;-77
2022/07/04 04:08:51;;;;;;;;;;;13.10;99.90;;;;;;5096211;28;19924;-77
2022/07/04 04:11:16;;;;;;;;;;;13.10;99.90;;;;;;5096018;28;19924;-77
2022/07/04 04:13:42;;;;;;;;;;;13.20;99.90;;;;;;5096050;28;19924;-77
2022/07/04 04:16:07;;;;;;;;;;;13.20;99.90;;;;;;5096295;28;19928;-77
2022/07/04 04:18:33;;;;;;;;;;;13.20;99.90;;;;;;5079107;28;19985;-77
2022/07/04 04:20:58;;;;;;;;;;;13.30;99.90;;;;;;5095986;28;19923;-77
2022/07/04 04:23:24;;;;;;;;;;;13.30;99.90;;;;;;5079101;28;19945;-77
2022/07/04 04:25:50;;;;;;;;;;;13.40;99.90;;;;;;5079108;28;20291;-77
2022/07/04 04:28:15;;;;;;;;;;;13.40;99.90;;;;;;5096191;28;19923;-77
2022/07/04 04:30:41;;;;;;;;;;;13.50;99.90;;;;;;5099756;28;19924;-77
2022/07/04 04:33:06;;;;;;;;;;;13.60;99.90;;;;;;5083134;28;19924;-77
2022/07/04 04:35:32;;;;;;;;;;;13.60;99.90;;;;;;5100107;28;19982;-79
2022/07/04 04:37:58;;;;;;;;;;;13.70;99.90;;;;;;5099882;28;19943;-77
2022/07/04 04:40:23;;;;;;;;;;;13.80;99.90;;;;;;5082428;28;20408;-77
2022/07/04 04:42:49;;;;;;;;;;;13.80;99.90;;;;;;5082887;28;19924;-77
2022/07/04 04:45:14;;;;;;;;;;;13.80;99.90;;;;;;5099889;28;19924;-77
2022/07/04 04:47:42;;;;;;;;;;;13.80;99.90;;;;;;5099830;28;19927;-77
2022/07/04 04:50:11;;;;;;;;;;;13.90;99.90;;;;;;5065960;28;19923;-77
2022/07/04 04:52:37;;;;;;;;;;;13.90;99.90;;;;;;5099521;28;19931;-77
2022/07/04 04:55:03;;;;;;;;;;;14.00;99.90;;;;;;5082670;28;19924;-77
2022/07/04 04:57:29;;;;;;;;;;;14.20;99.90;;;;;;5099340;28;19935;-77
2022/07/04 04:59:54;;;;;;;;;;;14.20;99.90;;;;;;5082476;28;19923;-77
2022/07/04 05:02:20;;;;;;;;;;;14.30;99.90;;;;;;5082293;28;19928;-77
2022/07/04 05:04:45;;;;;;;;;;;14.50;99.90;;;;;;5099341;28;19924;-77
2022/07/04 05:07:11;;;;;;;;;;;14.50;99.90;;;;;;5081937;28;19920;-77
2022/07/04 05:09:37;;;;;;;;;;;14.60;99.90;;;;;;5117258;28;19927;-77
2022/07/04 05:12:02;;;;;;;;;;;14.70;99.90;;;;;;5098703;28;20064;-77
2022/07/04 05:14:28;;;;;;;;;;;14.80;99.90;;;;;;5082347;28;19942;-77
2022/07/04 05:16:54;;;;;;;;;;;14.80;99.90;;;;;;5082184;28;19924;-77
2022/07/04 05:19:19;;;;;;;;;;;14.90;99.90;;;;;;5116947;28;19931;-77
2022/07/04 05:21:45;;;;;;;;;;;14.90;99.90;;;;;;5133338;27;20010;-77
2022/07/04 05:24:11;;;;;;;;;;;14.90;99.90;;;;;;5081929;28;20229;-77
2022/07/04 05:26:37;;;;;;;;;;;15.10;99.90;;;;;;5116835;28;19924;-77
2022/07/04 05:29:02;;;;;;;;;;;15.00;99.90;;;;;;5098807;28;19930;-77
2022/07/04 05:31:28;;;;;;;;;;;15.10;99.90;;;;;;5098565;28;20365;-77
2022/07/04 05:33:54;;;;;;;;;;;15.30;99.90;;;;;;5098847;28;19931;-82
2022/07/04 05:36:20;;;;;;;;;;;15.30;99.90;;;;;;5081798;28;20363;-78
2022/07/04 05:38:45;;;;;;;;;;;15.50;99.90;;;;;;5133358;27;19924;-77
2022/07/04 05:41:11;;;;;;;;;;;15.60;99.90;;;;;;5097498;28;19944;-77
2022/07/04 05:43:36;;;;;;;;;;;15.70;99.90;;;;;;5081736;28;19924;-78
2022/07/04 05:46:03;;;;;;;;;;;15.90;99.90;;;;;;5099000;28;19931;-84
2022/07/04 05:48:29;;;;;;;;;;;16.10;99.90;;;;;;5098935;28;19963;-88
2022/07/04 05:50:54;;;;;;;;;;;16.20;99.90;;;;;;5098727;28;19972;-88
2022/07/04 05:53:20;;;;;;;;;;;16.30;99.90;;;;;;5098970;28;19927;-83
2022/07/04 05:55:45;;;;;;;;;;;16.40;99.90;;;;;;5098666;28;19931;-81
2022/07/04 05:58:11;;;;;;;;;;;16.50;99.90;;;;;;5081665;28;20320;-82
2022/07/04 06:00:39;;;;;;;;;;;16.60;99.90;;;;;;5098218;28;19924;-78
2022/07/04 06:03:05;;;;;;;;;;;16.70;99.90;;;;;;5098144;28;19923;-78
2022/07/04 06:05:31;;;;;;;;;;;16.80;99.90;;;;;;5081520;28;19977;-78
2022/07/04 06:07:57;;;;;;;;;;;16.90;99.90;;;;;;5064314;28;20313;-78
2022/07/04 06:10:22;;;;;;;;;;;16.90;99.90;;;;;;5081763;28;19924;-79
2022/07/04 06:12:48;;;;;;;;;;;17.00;99.90;;;;;;5098034;28;19938;-78
2022/07/04 06:15:15;;;;;;;;;;;17.10;99.90;;;;;;5080890;28;20025;-80
2022/07/04 06:17:40;;;;;;;;;;;17.10;99.90;;;;;;5081106;28;19972;-79
2022/07/04 06:20:06;;;;;;;;;;;17.20;99.90;;;;;;5098614;28;20344;-79
2022/07/04 06:22:39;;;;;;;;;;;17.30;99.90;;;;;;5097938;28;19924;-82
2022/07/04 06:25:05;;;;;;;;;;;17.30;99.90;;;;;;5097731;28;20050;-80
2022/07/04 06:27:31;;;;;;;;;;;17.30;99.90;;;;;;5064139;28;20026;-79
2022/07/04 06:29:56;;;;;;;;;;;17.30;99.90;;;;;;5097538;28;19928;-81
2022/07/04 06:32:22;;;;;;;;;;;17.30;99.90;;;;;;5098406;28;20340;-81
2022/07/04 06:37:31;;;;;;;;;;;17.30;99.90;;;;;;5131729;27;20414;-81
2022/07/04 06:39:57;;;;;;;;;;;17.30;99.90;;;;;;5115397;28;19967;-81
2022/07/04 06:42:23;;;;;;;;;;;17.30;99.90;;;;;;5097696;28;20291;-81
2022/07/04 06:44:48;;;;;;;;;;;17.30;99.90;;;;;;5097034;28;19989;-81
2022/07/04 06:47:14;;;;;;;;;;;17.30;99.90;;;;;;5097330;28;19924;-79
2022/07/04 06:49:39;;;;;;;;;;;17.30;99.90;;;;;;5098004;28;19924;-80
2022/07/04 06:52:05;;;;;;;;;;;17.30;99.90;;;;;;5096724;28;19971;-80
2022/07/04 06:54:30;;;;;;;;;;;17.30;99.90;;;;;;5080410;28;20441;-79
2022/07/04 06:56:56;;;;;;;;;;;17.40;99.90;;;;;;5080985;28;19923;-80
2022/07/04 06:59:21;;;;;;;;;;;17.40;99.90;;;;;;5097852;28;19943;-79
2022/07/04 07:01:47;;;;;;;;;;;17.50;99.90;;;;;;5080900;28;19931;-77
2022/07/04 07:04:13;;;;;;;;;;;17.50;99.90;;;;;;5096890;28;20375;-77
2022/07/04 07:06:38;;;;;;;;;;;17.60;99.90;;;;;;5096984;28;19927;-79
2022/07/04 07:09:04;;;;;;;;;;;17.70;99.90;;;;;;5079915;28;20022;-77
2022/07/04 07:11:29;;;;;;;;;;;17.90;99.90;;;;;;5096615;28;19924;-78
2022/07/04 07:13:55;;;;;;;;;;;18.10;99.90;;;;;;5097481;28;19924;-77
2022/07/04 07:16:22;;;;;;;;;;;18.20;99.90;;;;;;5097521;28;20011;-77
2022/07/04 07:18:49;;;;;;;;;;;18.20;99.90;;;;;;5097583;28;19931;-78
2022/07/04 07:21:14;;;;;;;;;;;18.20;99.90;;;;;;5079885;28;19924;-78
2022/07/04 07:23:40;;;;;;;;;;;18.10;99.90;;;;;;5096706;28;20056;-78
2022/07/04 07:26:06;;;;;;;;;;;18.10;99.90;;;;;;5080106;28;19924;-79
2022/07/04 07:28:32;;;;;;;;;;;18.00;99.90;;;;;;5079750;28;20378;-78
2022/07/04 07:30:57;;;;;;;;;;;18.10;99.90;;;;;;5097190;28;19930;-78
2022/07/04 07:33:23;;;;;;;;;;;18.10;99.90;;;;;;5096188;28;20344;-78
2022/07/04 07:35:48;;;;;;;;;;;18.20;99.90;;;;;;5062980;28;19974;-77
2022/07/04 07:38:14;;;;;;;;;;;18.40;99.90;;;;;;5097203;28;19930;-78
2022/07/04 07:40:42;;;;;;;;;;;18.50;99.90;;;;;;5095870;28;19924;-77
2022/07/04 07:43:08;;;;;;;;;;;18.60;99.90;;;;;;5093536;28;19979;-77
2022/07/04 07:45:34;;;;;;;;;;;18.50;99.90;;;;;;5079472;28;19946;-77
2022/07/04 07:47:59;;;;;;;;;;;18.50;99.90;;;;;;5095755;28;19924;-76
2022/07/04 07:50:25;;;;;;;;;;;18.60;99.90;;;;;;5079445;28;20018;-76
2022/07/04 07:52:51;;;;;;;;;;;18.70;99.90;;;;;;5096286;28;19982;-75
2022/07/04 07:55:16;;;;;;;;;;;18.90;99.90;;;;;;5096464;28;19931;-80
2022/07/04 07:57:42;;;;;;;;;;;19.10;99.90;;;;;;5079490;28;20367;-79
2022/07/04 08:00:08;;;;;;;;;;;19.20;99.90;;;;;;5096081;28;19923;-79
2022/07/04 08:05:18;;;;;;;;;;;19.10;99.90;;;;;;5130145;28;20010;-80
2022/07/04 08:07:43;;;;;;;;;;;18.90;99.90;;;;;;5096190;28;20406;-78
2022/07/04 08:10:09;;;;;;;;;;;18.70;99.90;;;;;;5095697;28;19930;-76
2022/07/04 08:12:35;;;;;;;;;;;18.50;99.90;;;;;;5062534;28;20068;-77
2022/07/04 08:15:01;;;;;;;;;;;18.40;99.90;;;;;;5114046;28;19927;-77
2022/07/04 08:17:28;;;;;;;;;;;18.40;99.90;;;;;;5079095;28;20377;-77
2022/07/04 08:19:53;;;;;;;;;;;18.40;99.90;;;;;;5096372;28;19923;-76
2022/07/04 08:22:19;;;;;;;;;;;18.50;99.90;;;;;;5079274;28;20022;-79
2022/07/04 08:24:44;;;;;;;;;;;18.60;99.90;;;;;;5096224;28;19930;-78
2022/07/04 08:27:10;;;;;;;;;;;18.70;99.90;;;;;;5079876;28;20015;-80
2022/07/04 08:29:36;;;;;;;;;;;19.00;99.90;;;;;;5096126;28;19924;-78
2022/07/04 08:32:02;;;;;;;;;;;19.00;99.90;;;;;;5095548;28;19923;-78
2022/07/04 08:34:27;;;;;;;;;;;18.90;99.90;;;;;;5095852;28;19923;-79
2022/07/04 08:36:53;;;;;;;;;;;18.70;99.90;;;;;;5095875;28;19972;-80
2022/07/04 08:39:18;;;;;;;;;;;18.70;99.90;;;;;;5113569;28;19969;-78
2022/07/04 08:41:44;;;;;;;;;;;18.80;99.90;;;;;;5095887;28;19978;-76
2022/07/04 08:44:11;;;;;;;;;;;18.70;99.90;;;;;;5113444;28;19924;-76
2022/07/04 08:46:41;;;;;;;;;;;18.60;99.90;;;;;;5078969;28;19924;-77
2022/07/04 08:49:22;;;;;;;;;;;18.60;99.90;;;;;;5095862;28;19928;-77
2022/07/04 08:52:01;;;;;;;;;;;18.70;99.90;;;;;;5095471;28;19924;-77
2022/07/04 08:59:58;;;;;;;;;;;19.10;99.90;;;;;;5115487;28;19946;-78
2022/07/04 09:02:27;;;;;;;;;;;19.00;99.90;;;;;;5129803;28;19924;-78
2022/07/04 09:04:52;;;;;;;;;;;18.90;99.90;;;;;;5095248;28;19976;-79
2022/07/04 09:07:18;;;;;;;;;;;18.90;99.90;;;;;;5095896;28;19923;-80
2022/07/04 09:09:44;;;;;;;;;;;18.90;99.90;;;;;;5113449;28;19924;-82
2022/07/04 09:12:10;;;;;;;;;;;18.80;99.90;;;;;;5078985;28;19974;-79
2022/07/04 09:14:35;;;;;;;;;;;18.70;99.90;;;;;;5095448;28;20018;-79
2022/07/04 09:17:01;;;;;;;;;;;18.80;99.90;;;;;;5098058;28;19931;-79
2022/07/04 09:19:27;;;;;;;;;;;18.90;99.90;;;;;;5099016;28;19931;-78
2022/07/04 09:21:52;;;;;;;;;;;19.10;99.90;;;;;;5099732;28;19970;-79
2022/07/04 09:24:38;;;;;;;;;;;19.20;99.90;;;;;;5099285;28;20351;-81
2022/07/04 09:27:04;;;;;;;;;;;19.10;99.90;;;;;;5132618;27;20000;-75
2022/07/04 09:29:29;;;;;;;;;;;19.20;99.90;;;;;;5082839;28;20348;-81
2022/07/04 09:31:55;;;;;;;;;;;19.30;99.90;;;;;;5098141;28;19924;-79
2022/07/04 09:34:20;;;;;;;;;;;19.30;99.90;;;;;;5098868;28;19934;-78
2022/07/04 09:36:52;;;;;;;;;;;19.40;99.90;;;;;;5098674;28;20067;-80
2022/07/04 09:39:20;;;;;;;;;;;19.50;99.90;;;;;;5081821;28;19924;-83
2022/07/04 09:41:53;;;;;;;;;;;19.50;99.90;;;;;;5098423;28;19923;-81
2022/07/04 09:44:19;;;;;;;;;;;19.50;99.90;;;;;;5098727;28;19923;-80
2022/07/04 09:46:44;;;;;;;;;;;19.60;99.90;;;;;;5081661;28;19924;-78
2022/07/04 09:49:10;;;;;;;;;;;19.90;99.90;;;;;;5098469;28;19985;-80
2022/07/04 09:51:40;;;;;;;;;;;20.00;99.90;;;;;;5064308;28;20015;-82
2022/07/04 09:54:34;;;;;;;;;;;19.90;99.90;;;;;;5099032;28;20318;-77
2022/07/04 09:57:00;;;;;;;;;;;20.00;99.90;;;;;;5081835;28;19931;-76
2022/07/04 09:59:27;;;;;;;;;;;20.00;99.90;;;;;;5098128;28;19924;-80
2022/07/04 10:02:05;;;;;;;;;;;19.90;99.90;;;;;;5097939;28;19928;-81
2022/07/04 10:05:00;;;;;;;;;;;19.80;99.90;;;;;;5133137;27;19981;-80
2022/07/04 10:07:48;;;;;;;;;;;19.80;99.90;;;;;;5080631;28;20363;-78
2022/07/04 10:10:21;;;;;;;;;;;19.70;99.90;;;;;;5081831;28;19935;-79
2022/07/04 10:12:48;;;;;;;;;;;20.10;99.90;;;;;;5098059;28;19930;-78
2022/07/04 10:15:14;;;;;;;;;;;20.10;99.90;;;;;;5132111;27;19923;-79
2022/07/04 10:17:40;;;;;;;;;;;20.00;99.90;;;;;;5080806;28;19924;-77
2022/07/04 10:20:06;;;;;;;;;;;20.00;99.90;;;;;;5080832;28;20435;-81
2022/07/04 10:22:31;;;;;;;;;;;19.90;99.90;;;;;;5097705;28;19982;-79
2022/07/04 10:24:57;;;;;;;;;;;20.10;99.90;;;;;;5097654;28;19986;-79
2022/07/04 10:27:23;;;;;;;;;;;20.30;99.90;;;;;;5097293;28;20034;-78
2022/07/04 10:29:49;;;;;;;;;;;20.30;99.90;;;;;;5097936;28;19923;-78
2022/07/04 10:32:15;;;;;;;;;;;20.20;99.90;;;;;;5097772;28;19980;-80
2022/07/04 10:34:41;;;;;;;;;;;20.20;99.90;;;;;;5081485;28;20022;-81
2022/07/04 10:37:06;;;;;;;;;;;20.20;99.90;;;;;;5063978;28;19985;-77
2022/07/04 10:39:32;;;;;;;;;;;20.30;99.90;;;;;;5080340;28;19924;-78
2022/07/04 10:41:59;;;;;;;;;;;20.30;99.90;;;;;;5097487;28;20375;-78
2022/07/04 10:44:26;;;;;;;;;;;20.50;99.90;;;;;;5115494;28;19930;-80
2022/07/04 10:46:56;;;;;;;;;;;20.40;99.90;;;;;;5097549;28;20233;-80
2022/07/04 10:49:26;;;;;;;;;;;20.40;99.90;;;;;;5132362;27;19930;-77
2022/07/04 10:52:12;;;;;;;;;;;20.40;99.90;;;;;;5096790;28;19938;-80
2022/07/04 10:54:39;;;;;;;;;;;20.50;99.90;;;;;;5097934;28;19945;-79
2022/07/04 10:57:11;;;;;;;;;;;20.70;99.90;;;;;;5080446;28;19924;-78
2022/07/04 10:59:37;;;;;;;;;;;20.60;99.90;;;;;;5096728;28;19928;-80
2022/07/04 11:02:03;;;;;;;;;;;20.60;99.90;;;;;;5097103;28;20021;-76
2022/07/04 11:04:55;;;;;;;;;;;20.50;99.90;;;;;;5097019;28;19963;-80
2022/07/04 11:07:30;;;;;;;;;;;20.60;99.90;;;;;;5092695;28;20352;-79
2022/07/04 11:10:33;;;;;;;;;;;20.60;99.90;;;;;;5096522;28;20010;-79
2022/07/04 11:12:56;;;;;;;;;;;20.50;99.90;;;;;;5097061;28;20104;-78
2022/07/04 11:15:28;;;;;;;;;;;20.60;99.90;;;;;;5096951;28;19963;-79
2022/07/04 11:18:04;;;;;;;;;;;20.50;99.90;;;;;;5079851;28;20382;-81
2022/07/04 11:20:31;;;;;;;;;;;20.60;99.90;;;;;;5096730;28;20253;-82
2022/07/04 11:23:12;;;;;;;;;;;20.60;99.90;;;;;;5096416;28;19931;-79
2022/07/04 11:25:40;;;;;;;;;;;20.50;99.90;;;;;;5079304;28;20356;-81
2022/07/04 11:28:25;;;;;;;;;;;20.40;99.90;;;;;;5131629;27;20251;-84
2022/07/04 11:30:52;;;;;;;;;;;20.50;99.90;;;;;;5096564;28;20003;-89
2022/07/04 11:33:22;;;;;;;;;;;20.60;99.90;;;;;;5080240;28;19970;-79
2022/07/04 11:36:06;;;;;;;;;;;20.90;99.90;;;;;;5096841;28;20355;-81
2022/07/04 11:38:48;;;;;;;;;;;21.10;99.90;;;;;;5112618;28;19923;-80
2022/07/04 11:46:45;;;;;;;;;;;21.40;99.90;;;;;;5130696;27;19931;-82
2022/07/04 11:49:12;;;;;;;;;;;21.70;99.90;;;;;;5079502;28;19924;-80
2022/07/04 11:51:47;;;;;;;;;;;22.20;99.90;;;;;;5079453;28;19924;-81
2022/07/04 11:54:13;;;;;;;;;;;21.60;99.90;;;;;;5096351;28;19931;-80
2022/07/04 11:56:38;;;;;;;;;;;21.70;99.90;;;;;;5079061;28;19924;-80
2022/07/04 11:59:11;;;;;;;;;;;22.00;99.90;;;;;;5096258;28;19927;-81
2022/07/04 12:01:37;;;;;;;;;;;22.10;99.90;;;;;;5079283;28;20029;-79
2022/07/04 12:04:19;;;;;;;;;;;21.90;99.90;;;;;;5114095;28;20367;-80
2022/07/04 12:06:45;;;;;;;;;;;21.90;99.90;;;;;;5096961;28;19924;-81
2022/07/04 12:09:11;;;;;;;;;;;21.90;99.90;;;;;;5096113;28;20291;-82
2022/07/04 12:12:10;;;;;;;;;;;22.10;99.90;;;;;;5129914;28;19931;-81
2022/07/04 12:14:35;;;;;;;;;;;22.30;99.90;;;;;;5051826;28;19931;-81
2022/07/04 12:17:15;;;;;;;;;;;22.60;99.90;;;;;;5096267;28;19928;-80
2022/07/04 12:20:13;;;;;;;;;;;22.80;99.90;;;;;;5095999;28;19924;-81
2022/07/04 12:22:42;;;;;;;;;;;23.00;99.90;;;;;;5051920;28;19927;-83
2022/07/04 12:25:20;;;;;;;;;;;23.20;99.90;;;;;;5095980;28;19931;-83
2022/07/04 12:27:51;;;;;;;;;;;23.20;99.90;;;;;;5096729;28;19981;-77
2022/07/04 12:30:16;;;;;;;;;;;23.40;99.90;;;;;;5095871;28;19930;-78
2022/07/04 12:32:46;;;;;;;;;;;23.30;99.90;;;;;;5095878;28;19924;-80
2022/07/04 12:35:31;;;;;;;;;;;23.40;99.90;;;;;;5095824;28;19924;-81
2022/07/04 12:38:00;;;;;;;;;;;23.10;99.70;;;;;;5096587;28;19924;-79
2022/07/04 12:40:26;;;;;;;;;;;23.20;99.90;;;;;;5095059;28;19924;-80
2022/07/04 12:42:54;;;;;;;;;;;22.90;99.90;;;;;;5095792;28;20014;-80
2022/07/04 12:45:19;;;;;;;;;;;22.40;99.90;;;;;;5079016;28;19934;-82
2022/07/04 12:47:49;;;;;;;;;;;22.30;99.90;;;;;;5079154;28;19924;-86
2022/07/04 12:50:14;;;;;;;;;;;22.10;99.90;;;;;;5080527;28;19930;-81
2022/07/04 12:52:42;;;;;;;;;;;21.80;99.90;;;;;;5099561;28;20018;-81
2022/07/04 12:55:10;;;;;;;;;;;22.10;99.90;;;;;;5099367;28;20026;-81
2022/07/04 12:57:35;;;;;;;;;;;22.10;99.10;;;;;;5099798;28;19969;-79
2022/07/04 13:00:02;;;;;;;;;;;22.20;99.00;;;;;;5099699;28;20275;-80
2022/07/04 13:02:27;;;;;;;;;;;22.20;99.20;;;;;;5100010;28;20006;-80
2022/07/04 13:04:53;;;;;;;;;;;22.40;99.30;;;;;;5082774;28;20335;-80
2022/07/04 13:07:18;;;;;;;;;;;22.50;97.60;;;;;;5098993;28;19924;-84
2022/07/04 13:09:45;;;;;;;;;;;22.70;99.70;;;;;;5100044;28;19924;-81
2022/07/04 13:12:24;;;;;;;;;;;22.90;99.90;;;;;;5098965;28;20018;-82
2022/07/04 13:14:50;;;;;;;;;;;23.00;98.80;;;;;;5099130;28;19924;-79
2022/07/04 13:17:15;;;;;;;;;;;22.90;99.90;;;;;;5082069;28;19972;-79
2022/07/04 13:19:41;;;;;;;;;;;22.90;99.20;;;;;;5098861;28;19928;-81
2022/07/04 13:22:07;;;;;;;;;;;23.40;99.90;;;;;;5099007;28;19924;-80
2022/07/04 13:24:33;;;;;;;;;;;23.70;99.90;;;;;;5098985;28;19924;-80
2022/07/04 13:26:58;;;;;;;;;;;23.60;97.50;;;;;;5081457;28;19930;-79
2022/07/04 13:29:24;;;;;;;;;;;23.80;97.60;;;;;;5081732;28;19931;-81
2022/07/04 13:31:50;;;;;;;;;;;23.80;97.30;;;;;;5081774;28;20363;-84
2022/07/04 13:34:16;;;;;;;;;;;23.80;95.20;;;;;;5081261;28;20346;-83
2022/07/04 13:36:41;;;;;;;;;;;23.70;96.30;;;;;;5081426;28;19972;-79
2022/07/04 13:39:08;;;;;;;;;;;23.80;97.20;;;;;;5099041;28;20362;-79
2022/07/04 13:41:44;;;;;;;;;;;24.30;95.90;;;;;;5115248;28;20331;-83
2022/07/04 13:44:15;;;;;;;;;;;24.20;94.70;;;;;;5098045;28;19943;-79
2022/07/04 13:46:45;;;;;;;;;;;24.10;95.10;;;;;;5116512;28;19924;-81
2022/07/04 13:49:11;;;;;;;;;;;24.10;93.10;;;;;;5081564;28;19972;-81
2022/07/04 13:51:37;;;;;;;;;;;24.30;92.80;;;;;;5098037;28;19931;-81
2022/07/04 13:54:03;;;;;;;;;;;24.40;93.10;;;;;;5099071;28;20006;-83
2022/07/04 13:56:29;;;;;;;;;;;24.40;94.00;;;;;;5081404;28;20442;-79
2022/07/04 13:58:54;;;;;;;;;;;24.50;93.60;;;;;;5081407;28;19925;-83
2022/07/04 14:01:20;;;;;;;;;;;24.40;92.60;;;;;;5081088;28;20344;-81
2022/07/04 14:03:46;;;;;;;;;;;24.70;93.20;;;;;;5080963;28;20007;-82
2022/07/04 14:06:12;;;;;;;;;;;25.30;92.60;;;;;;5098199;28;19924;-82
2022/07/04 14:08:37;;;;;;;;;;;25.10;91.50;;;;;;5081397;28;19923;-82
2022/07/04 14:11:03;;;;;;;;;;;25.00;93.00;;;;;;5081154;28;19924;-80
2022/07/04 14:13:29;;;;;;;;;;;25.40;91.50;;;;;;5098580;28;19924;-82
2022/07/04 14:15:55;;;;;;;;;;;25.70;91.30;;;;;;5132294;27;20418;-83
2022/07/04 14:18:20;;;;;;;;;;;25.30;91.20;;;;;;5098034;28;19935;-81
2022/07/04 14:20:46;;;;;;;;;;;25.30;90.70;;;;;;5098048;28;19923;-83
2022/07/04 14:23:12;;;;;;;;;;;25.30;90.70;;;;;;5080844;28;19927;-84
2022/07/04 14:25:38;;;;;;;;;;;24.90;91.70;;;;;;5081008;28;19978;-83
2022/07/04 14:28:04;;;;;;;;;;;24.80;91.40;;;;;;5080683;28;19927;-83
2022/07/04 14:30:29;;;;;;;;;;;24.40;93.20;;;;;;5064259;28;19976;-82
2022/07/04 14:32:55;;;;;;;;;;;23.70;92.80;;;;;;5080789;28;20275;-83
2022/07/04 14:35:21;;;;;;;;;;;23.20;94.30;;;;;;5096758;28;20068;-83
2022/07/04 14:37:46;;;;;;;;;;;22.60;92.90;;;;;;5097449;28;19931;-82
2022/07/04 14:40:13;;;;;;;;;;;23.20;96.40;;;;;;5096880;28;19924;-81